sensor_id;sensor_type;location;lat;lon;timestamp;P1;durP1;ratioP1;P2;durP2;ratioP2
47337;SDS011;33069;51.970;5.892;2023-02-12T00:00:37;33.88;;;20.50;;
47337;SDS011;33069;51.970;5.892;2023-02-12T00:03:04;36.55;;;22.20;;
47337;SDS011;33069;51.970;5.892;2023-02-12T00:05:30;29.90;;;19.20;;
47337;SDS011;33069;51.970;5.892;2023-02-12T00:07:56;33.78;;;19.90;;
47337;SDS011;33069;51.970;5.892;2023-02-12T00:10:22;34.97;;;21.52;;
47337;SDS011;33069;51.970;5.892;2023-02-12T00:12:47;28.80;;;19.35;;
47337;SDS011;33069;51.970;5.892;2023-02-12T00:15:13;32.95;;;20.88;;
47337;SDS011;33069;51.970;5.892;2023-02-12T00:17:39;34.47;;;21.05;;
47337;SDS011;33069;51.970;5.892;2023-02-12T00:20:05;35.22;;;20.52;;
47337;SDS011;33069;51.970;5.892;2023-02-12T00:22:31;40.58;;;21.52;;
47337;SDS011;33069;51.970;5.892;2023-02-12T00:24:57;32.17;;;20.48;;
47337;SDS011;33069;51.970;5.892;2023-02-12T00:27:22;32.35;;;20.88;;
47337;SDS011;33069;51.970;5.892;2023-02-12T00:29:49;38.97;;;23.00;;
47337;SDS011;33069;51.970;5.892;2023-02-12T00:32:14;34.95;;;20.95;;
47337;SDS011;33069;51.970;5.892;2023-02-12T00:34:44;37.53;;;22.23;;
47337;SDS011;33069;51.970;5.892;2023-02-12T00:37:10;37.60;;;21.33;;
47337;SDS011;33069;51.970;5.892;2023-02-12T00:39:36;35.85;;;22.98;;
47337;SDS011;33069;51.970;5.892;2023-02-12T00:42:02;35.65;;;21.83;;
47337;SDS011;33069;51.970;5.892;2023-02-12T00:44:28;36.53;;;21.83;;
47337;SDS011;33069;51.970;5.892;2023-02-12T00:46:54;34.78;;;22.50;;
47337;SDS011;33069;51.970;5.892;2023-02-12T00:49:21;40.40;;;22.90;;
47337;SDS011;33069;51.970;5.892;2023-02-12T00:51:47;37.85;;;22.30;;
47337;SDS011;33069;51.970;5.892;2023-02-12T00:54:13;42.80;;;23.50;;
47337;SDS011;33069;51.970;5.892;2023-02-12T00:56:39;39.22;;;22.92;;
47337;SDS011;33069;51.970;5.892;2023-02-12T00:59:05;40.78;;;23.17;;
47337;SDS011;33069;51.970;5.892;2023-02-12T01:01:30;42.67;;;24.20;;
47337;SDS011;33069;51.970;5.892;2023-02-12T01:03:56;47.45;;;27.23;;
47337;SDS011;33069;51.970;5.892;2023-02-12T01:06:22;40.50;;;25.25;;
47337;SDS011;33069;51.970;5.892;2023-02-12T01:08:51;41.97;;;25.83;;
47337;SDS011;33069;51.970;5.892;2023-02-12T01:11:17;40.53;;;24.70;;
47337;SDS011;33069;51.970;5.892;2023-02-12T01:13:43;40.28;;;24.85;;
47337;SDS011;33069;51.970;5.892;2023-02-12T01:16:16;37.45;;;24.27;;
47337;SDS011;33069;51.970;5.892;2023-02-12T01:18:42;44.38;;;26.33;;
47337;SDS011;33069;51.970;5.892;2023-02-12T01:21:13;39.47;;;23.40;;
47337;SDS011;33069;51.970;5.892;2023-02-12T01:23:39;37.70;;;22.92;;
47337;SDS011;33069;51.970;5.892;2023-02-12T01:26:06;39.00;;;23.52;;
47337;SDS011;33069;51.970;5.892;2023-02-12T01:28:34;36.67;;;23.05;;
47337;SDS011;33069;51.970;5.892;2023-02-12T01:31:01;42.60;;;25.13;;
47337;SDS011;33069;51.970;5.892;2023-02-12T01:33:31;40.58;;;22.83;;
47337;SDS011;33069;51.970;5.892;2023-02-12T01:35:57;42.85;;;24.60;;
47337;SDS011;33069;51.970;5.892;2023-02-12T01:38:22;36.88;;;24.20;;
47337;SDS011;33069;51.970;5.892;2023-02-12T01:40:48;45.70;;;26.10;;
47337;SDS011;33069;51.970;5.892;2023-02-12T01:43:14;42.25;;;24.60;;
47337;SDS011;33069;51.970;5.892;2023-02-12T01:48:11;37.20;;;23.35;;
47337;SDS011;33069;51.970;5.892;2023-02-12T01:50:41;37.25;;;22.98;;
47337;SDS011;33069;51.970;5.892;2023-02-12T01:53:09;47.45;;;28.08;;
47337;SDS011;33069;51.970;5.892;2023-02-12T01:55:37;44.85;;;27.13;;
47337;SDS011;33069;51.970;5.892;2023-02-12T01:58:03;50.88;;;28.73;;
47337;SDS011;33069;51.970;5.892;2023-02-12T02:00:30;40.10;;;23.30;;
47337;SDS011;33069;51.970;5.892;2023-02-12T02:02:57;39.75;;;25.10;;
47337;SDS011;33069;51.970;5.892;2023-02-12T02:08:00;38.08;;;24.75;;
47337;SDS011;33069;51.970;5.892;2023-02-12T02:10:25;49.35;;;28.10;;
47337;SDS011;33069;51.970;5.892;2023-02-12T02:12:53;44.15;;;25.88;;
47337;SDS011;33069;51.970;5.892;2023-02-12T02:15:37;40.58;;;24.77;;
47337;SDS011;33069;51.970;5.892;2023-02-12T02:18:08;43.00;;;25.42;;
47337;SDS011;33069;51.970;5.892;2023-02-12T02:31:40;53.83;;;27.98;;
47337;SDS011;33069;51.970;5.892;2023-02-12T02:35:22;52.00;;;30.40;;
47337;SDS011;33069;51.970;5.892;2023-02-12T02:37:34;43.97;;;25.75;;
47337;SDS011;33069;51.970;5.892;2023-02-12T02:40:17;44.53;;;25.65;;
47337;SDS011;33069;51.970;5.892;2023-02-12T02:42:51;39.60;;;24.15;;
47337;SDS011;33069;51.970;5.892;2023-02-12T02:47:57;45.20;;;25.48;;
47337;SDS011;33069;51.970;5.892;2023-02-12T02:50:27;45.67;;;28.70;;
47337;SDS011;33069;51.970;5.892;2023-02-12T02:52:58;61.13;;;31.83;;
47337;SDS011;33069;51.970;5.892;2023-02-12T02:55:29;43.92;;;25.17;;
47337;SDS011;33069;51.970;5.892;2023-02-12T03:03:40;42.13;;;25.45;;
47337;SDS011;33069;51.970;5.892;2023-02-12T03:06:13;43.60;;;26.67;;
47337;SDS011;33069;51.970;5.892;2023-02-12T03:08:52;47.03;;;27.08;;
47337;SDS011;33069;51.970;5.892;2023-02-12T03:11:23;61.55;;;33.70;;
47337;SDS011;33069;51.970;5.892;2023-02-12T03:16:42;48.53;;;27.25;;
47337;SDS011;33069;51.970;5.892;2023-02-12T03:19:28;45.13;;;26.63;;
47337;SDS011;33069;51.970;5.892;2023-02-12T03:22:01;44.92;;;26.73;;
47337;SDS011;33069;51.970;5.892;2023-02-12T03:24:50;46.20;;;27.92;;
47337;SDS011;33069;51.970;5.892;2023-02-12T03:27:26;41.58;;;25.65;;
47337;SDS011;33069;51.970;5.892;2023-02-12T03:29:55;40.30;;;25.17;;
47337;SDS011;33069;51.970;5.892;2023-02-12T03:32:37;43.38;;;26.17;;
47337;SDS011;33069;51.970;5.892;2023-02-12T03:35:30;54.67;;;28.55;;
47337;SDS011;33069;51.970;5.892;2023-02-12T03:41:28;43.05;;;26.20;;
47337;SDS011;33069;51.970;5.892;2023-02-12T03:46:41;48.75;;;28.35;;
47337;SDS011;33069;51.970;5.892;2023-02-12T03:49:26;47.38;;;26.17;;
47337;SDS011;33069;51.970;5.892;2023-02-12T03:52:00;45.40;;;26.80;;
47337;SDS011;33069;51.970;5.892;2023-02-12T03:54:27;46.08;;;26.92;;
47337;SDS011;33069;51.970;5.892;2023-02-12T03:56:58;46.50;;;25.83;;
47337;SDS011;33069;51.970;5.892;2023-02-12T03:59:35;41.97;;;26.27;;
47337;SDS011;33069;51.970;5.892;2023-02-12T04:02:03;50.35;;;28.38;;
47337;SDS011;33069;51.970;5.892;2023-02-12T04:04:29;53.90;;;30.38;;
47337;SDS011;33069;51.970;5.892;2023-02-12T04:06:56;56.88;;;32.90;;
47337;SDS011;33069;51.970;5.892;2023-02-12T04:09:23;60.50;;;33.85;;
47337;SDS011;33069;51.970;5.892;2023-02-12T04:18:20;41.83;;;26.00;;
47337;SDS011;33069;51.970;5.892;2023-02-12T04:20:58;66.80;;;34.45;;
47337;SDS011;33069;51.970;5.892;2023-02-12T04:26:20;56.00;;;30.98;;
47337;SDS011;33069;51.970;5.892;2023-02-12T04:34:09;47.38;;;26.80;;
47337;SDS011;33069;51.970;5.892;2023-02-12T04:36:44;44.22;;;25.90;;
47337;SDS011;33069;51.970;5.892;2023-02-12T04:39:21;47.53;;;26.92;;
47337;SDS011;33069;51.970;5.892;2023-02-12T04:41:51;41.13;;;24.60;;
47337;SDS011;33069;51.970;5.892;2023-02-12T04:44:18;52.95;;;30.73;;
47337;SDS011;33069;51.970;5.892;2023-02-12T04:46:50;67.88;;;32.47;;
47337;SDS011;33069;51.970;5.892;2023-02-12T04:49:17;44.58;;;28.38;;
47337;SDS011;33069;51.970;5.892;2023-02-12T04:51:44;52.35;;;30.80;;
47337;SDS011;33069;51.970;5.892;2023-02-12T04:54:10;59.97;;;32.65;;
47337;SDS011;33069;51.970;5.892;2023-02-12T04:56:36;46.28;;;27.77;;
47337;SDS011;33069;51.970;5.892;2023-02-12T04:59:02;60.85;;;32.83;;
47337;SDS011;33069;51.970;5.892;2023-02-12T05:01:28;64.13;;;34.55;;
47337;SDS011;33069;51.970;5.892;2023-02-12T05:03:54;64.10;;;32.90;;
47337;SDS011;33069;51.970;5.892;2023-02-12T05:06:20;52.25;;;29.33;;
47337;SDS011;33069;51.970;5.892;2023-02-12T05:08:46;46.72;;;28.42;;
47337;SDS011;33069;51.970;5.892;2023-02-12T05:11:12;51.10;;;30.95;;
47337;SDS011;33069;51.970;5.892;2023-02-12T05:13:37;54.22;;;31.55;;
47337;SDS011;33069;51.970;5.892;2023-02-12T05:16:07;62.55;;;34.25;;
47337;SDS011;33069;51.970;5.892;2023-02-12T05:18:33;62.17;;;33.45;;
47337;SDS011;33069;51.970;5.892;2023-02-12T05:21:00;60.65;;;33.80;;
47337;SDS011;33069;51.970;5.892;2023-02-12T05:23:28;46.20;;;28.83;;
47337;SDS011;33069;51.970;5.892;2023-02-12T05:25:59;59.72;;;32.58;;
47337;SDS011;33069;51.970;5.892;2023-02-12T05:28:26;70.13;;;37.65;;
47337;SDS011;33069;51.970;5.892;2023-02-12T05:30:52;45.90;;;26.70;;
47337;SDS011;33069;51.970;5.892;2023-02-12T05:33:18;58.65;;;30.95;;
47337;SDS011;33069;51.970;5.892;2023-02-12T05:35:44;51.75;;;32.35;;
47337;SDS011;33069;51.970;5.892;2023-02-12T05:38:10;43.67;;;27.02;;
47337;SDS011;33069;51.970;5.892;2023-02-12T05:40:36;61.95;;;33.80;;
47337;SDS011;33069;51.970;5.892;2023-02-12T05:43:02;42.95;;;25.92;;
47337;SDS011;33069;51.970;5.892;2023-02-12T05:45:28;48.40;;;29.45;;
47337;SDS011;33069;51.970;5.892;2023-02-12T05:47:57;45.78;;;27.30;;
47337;SDS011;33069;51.970;5.892;2023-02-12T05:50:22;47.75;;;28.75;;
47337;SDS011;33069;51.970;5.892;2023-02-12T05:52:48;48.30;;;27.50;;
47337;SDS011;33069;51.970;5.892;2023-02-12T05:55:14;43.03;;;24.67;;
47337;SDS011;33069;51.970;5.892;2023-02-12T05:57:39;49.78;;;29.92;;
47337;SDS011;33069;51.970;5.892;2023-02-12T06:00:06;41.80;;;25.15;;
47337;SDS011;33069;51.970;5.892;2023-02-12T06:02:33;40.22;;;25.38;;
47337;SDS011;33069;51.970;5.892;2023-02-12T06:04:59;50.53;;;30.58;;
47337;SDS011;33069;51.970;5.892;2023-02-12T06:07:25;40.65;;;25.60;;
47337;SDS011;33069;51.970;5.892;2023-02-12T06:09:51;50.15;;;28.00;;
47337;SDS011;33069;51.970;5.892;2023-02-12T06:12:17;43.28;;;26.40;;
47337;SDS011;33069;51.970;5.892;2023-02-12T06:14:42;42.38;;;26.20;;
47337;SDS011;33069;51.970;5.892;2023-02-12T06:17:08;43.28;;;25.17;;
47337;SDS011;33069;51.970;5.892;2023-02-12T06:19:35;48.75;;;28.75;;
47337;SDS011;33069;51.970;5.892;2023-02-12T06:22:00;44.25;;;24.20;;
47337;SDS011;33069;51.970;5.892;2023-02-12T06:24:26;47.67;;;28.33;;
47337;SDS011;33069;51.970;5.892;2023-02-12T06:26:52;48.85;;;29.80;;
47337;SDS011;33069;51.970;5.892;2023-02-12T06:29:18;48.60;;;29.85;;
47337;SDS011;33069;51.970;5.892;2023-02-12T06:31:45;53.92;;;30.52;;
47337;SDS011;33069;51.970;5.892;2023-02-12T06:34:11;55.70;;;30.40;;
47337;SDS011;33069;51.970;5.892;2023-02-12T06:36:39;43.05;;;25.08;;
47337;SDS011;33069;51.970;5.892;2023-02-12T06:39:06;52.85;;;31.38;;
47337;SDS011;33069;51.970;5.892;2023-02-12T06:41:32;40.45;;;24.67;;
47337;SDS011;33069;51.970;5.892;2023-02-12T06:43:58;42.08;;;25.88;;
47337;SDS011;33069;51.970;5.892;2023-02-12T06:46:24;45.35;;;28.77;;
47337;SDS011;33069;51.970;5.892;2023-02-12T06:48:53;39.95;;;25.90;;
47337;SDS011;33069;51.970;5.892;2023-02-12T06:51:20;49.10;;;28.45;;
47337;SDS011;33069;51.970;5.892;2023-02-12T06:53:47;38.80;;;24.90;;
47337;SDS011;33069;51.970;5.892;2023-02-12T06:56:15;40.78;;;26.08;;
47337;SDS011;33069;51.970;5.892;2023-02-12T06:58:42;43.25;;;27.70;;
47337;SDS011;33069;51.970;5.892;2023-02-12T07:01:16;41.67;;;25.75;;
47337;SDS011;33069;51.970;5.892;2023-02-12T07:06:16;43.03;;;25.40;;
47337;SDS011;33069;51.970;5.892;2023-02-12T07:08:43;39.95;;;25.00;;
47337;SDS011;33069;51.970;5.892;2023-02-12T07:11:08;41.83;;;25.75;;
47337;SDS011;33069;51.970;5.892;2023-02-12T07:13:34;37.05;;;23.83;;
47337;SDS011;33069;51.970;5.892;2023-02-12T07:16:04;37.58;;;25.17;;
47337;SDS011;33069;51.970;5.892;2023-02-12T07:18:32;43.00;;;23.05;;
47337;SDS011;33069;51.970;5.892;2023-02-12T07:20:58;45.22;;;27.50;;
47337;SDS011;33069;51.970;5.892;2023-02-12T07:23:25;44.42;;;26.52;;
47337;SDS011;33069;51.970;5.892;2023-02-12T07:25:54;45.03;;;27.42;;
47337;SDS011;33069;51.970;5.892;2023-02-12T07:28:23;45.08;;;28.67;;
47337;SDS011;33069;51.970;5.892;2023-02-12T07:30:50;41.53;;;26.83;;
47337;SDS011;33069;51.970;5.892;2023-02-12T07:33:16;45.00;;;27.83;;
47337;SDS011;33069;51.970;5.892;2023-02-12T07:35:41;45.28;;;27.95;;
47337;SDS011;33069;51.970;5.892;2023-02-12T07:38:07;43.33;;;25.55;;
47337;SDS011;33069;51.970;5.892;2023-02-12T07:40:34;37.20;;;24.95;;
47337;SDS011;33069;51.970;5.892;2023-02-12T07:42:59;36.47;;;25.23;;
47337;SDS011;33069;51.970;5.892;2023-02-12T07:45:25;43.17;;;27.92;;
47337;SDS011;33069;51.970;5.892;2023-02-12T07:47:51;39.47;;;25.45;;
47337;SDS011;33069;51.970;5.892;2023-02-12T07:50:17;44.63;;;28.63;;
47337;SDS011;33069;51.970;5.892;2023-02-12T07:52:43;41.53;;;27.83;;
47337;SDS011;33069;51.970;5.892;2023-02-12T07:55:08;40.78;;;25.10;;
47337;SDS011;33069;51.970;5.892;2023-02-12T07:57:34;49.50;;;29.83;;
47337;SDS011;33069;51.970;5.892;2023-02-12T08:00:01;45.17;;;29.63;;
47337;SDS011;33069;51.970;5.892;2023-02-12T08:02:27;42.47;;;28.45;;
47337;SDS011;33069;51.970;5.892;2023-02-12T08:04:56;47.00;;;28.65;;
47337;SDS011;33069;51.970;5.892;2023-02-12T08:07:23;51.85;;;30.42;;
47337;SDS011;33069;51.970;5.892;2023-02-12T08:09:48;49.30;;;29.65;;
47337;SDS011;33069;51.970;5.892;2023-02-12T08:12:15;51.50;;;30.85;;
47337;SDS011;33069;51.970;5.892;2023-02-12T08:14:41;51.22;;;31.70;;
47337;SDS011;33069;51.970;5.892;2023-02-12T08:17:07;48.92;;;29.77;;
47337;SDS011;33069;51.970;5.892;2023-02-12T08:19:33;41.75;;;26.95;;
47337;SDS011;33069;51.970;5.892;2023-02-12T08:21:59;47.45;;;30.08;;
47337;SDS011;33069;51.970;5.892;2023-02-12T08:24:30;46.90;;;29.48;;
47337;SDS011;33069;51.970;5.892;2023-02-12T08:26:56;42.90;;;27.70;;
47337;SDS011;33069;51.970;5.892;2023-02-12T08:29:23;42.05;;;27.95;;
47337;SDS011;33069;51.970;5.892;2023-02-12T08:32:02;48.38;;;29.60;;
47337;SDS011;33069;51.970;5.892;2023-02-12T08:34:31;39.83;;;26.00;;
47337;SDS011;33069;51.970;5.892;2023-02-12T08:36:58;43.88;;;28.58;;
47337;SDS011;33069;51.970;5.892;2023-02-12T08:39:25;51.28;;;31.42;;
47337;SDS011;33069;51.970;5.892;2023-02-12T08:41:53;46.53;;;29.17;;
47337;SDS011;33069;51.970;5.892;2023-02-12T08:44:20;44.65;;;29.95;;
47337;SDS011;33069;51.970;5.892;2023-02-12T08:46:47;49.97;;;31.25;;
47337;SDS011;33069;51.970;5.892;2023-02-12T08:49:15;54.15;;;32.08;;
47337;SDS011;33069;51.970;5.892;2023-02-12T08:51:47;54.70;;;32.28;;
47337;SDS011;33069;51.970;5.892;2023-02-12T08:54:16;57.63;;;35.30;;
47337;SDS011;33069;51.970;5.892;2023-02-12T08:56:44;50.70;;;30.92;;
47337;SDS011;33069;51.970;5.892;2023-02-12T08:59:10;41.72;;;29.10;;
47337;SDS011;33069;51.970;5.892;2023-02-12T09:01:37;40.65;;;28.23;;
47337;SDS011;33069;51.970;5.892;2023-02-12T09:04:05;46.10;;;30.30;;
47337;SDS011;33069;51.970;5.892;2023-02-12T09:06:31;47.47;;;31.58;;
47337;SDS011;33069;51.970;5.892;2023-02-12T09:08:59;42.13;;;30.13;;
47337;SDS011;33069;51.970;5.892;2023-02-12T09:11:25;44.10;;;28.95;;
47337;SDS011;33069;51.970;5.892;2023-02-12T09:13:56;43.22;;;29.45;;
47337;SDS011;33069;51.970;5.892;2023-02-12T09:16:25;40.92;;;29.50;;
47337;SDS011;33069;51.970;5.892;2023-02-12T09:18:51;44.88;;;29.90;;
47337;SDS011;33069;51.970;5.892;2023-02-12T09:21:17;45.60;;;27.50;;
47337;SDS011;33069;51.970;5.892;2023-02-12T09:23:43;43.75;;;29.02;;
47337;SDS011;33069;51.970;5.892;2023-02-12T09:26:11;42.00;;;29.15;;
47337;SDS011;33069;51.970;5.892;2023-02-12T09:28:39;40.47;;;27.38;;
47337;SDS011;33069;51.970;5.892;2023-02-12T09:31:06;45.13;;;31.20;;
47337;SDS011;33069;51.970;5.892;2023-02-12T09:33:34;47.83;;;30.13;;
47337;SDS011;33069;51.970;5.892;2023-02-12T09:36:04;44.33;;;30.80;;
47337;SDS011;33069;51.970;5.892;2023-02-12T09:38:31;39.60;;;27.30;;
47337;SDS011;33069;51.970;5.892;2023-02-12T09:46:28;41.10;;;30.30;;
47337;SDS011;33069;51.970;5.892;2023-02-12T09:51:26;40.03;;;29.55;;
47337;SDS011;33069;51.970;5.892;2023-02-12T09:54:13;41.47;;;30.05;;
47337;SDS011;33069;51.970;5.892;2023-02-12T09:56:45;44.08;;;31.02;;
47337;SDS011;33069;51.970;5.892;2023-02-12T09:59:20;42.40;;;29.00;;
47337;SDS011;33069;51.970;5.892;2023-02-12T10:01:56;42.40;;;29.50;;
47337;SDS011;33069;51.970;5.892;2023-02-12T10:04:22;41.78;;;30.45;;
47337;SDS011;33069;51.970;5.892;2023-02-12T10:06:55;43.22;;;30.25;;
47337;SDS011;33069;51.970;5.892;2023-02-12T10:17:36;44.22;;;31.08;;
47337;SDS011;33069;51.970;5.892;2023-02-12T10:20:37;45.17;;;31.13;;
47337;SDS011;33069;51.970;5.892;2023-02-12T10:29:07;46.90;;;33.47;;
47337;SDS011;33069;51.970;5.892;2023-02-12T10:31:52;52.80;;;33.97;;
47337;SDS011;33069;51.970;5.892;2023-02-12T10:34:22;51.50;;;34.90;;
47337;SDS011;33069;51.970;5.892;2023-02-12T10:36:51;44.15;;;30.90;;
47337;SDS011;33069;51.970;5.892;2023-02-12T10:39:23;46.35;;;29.05;;
47337;SDS011;33069;51.970;5.892;2023-02-12T10:42:13;51.60;;;33.92;;
47337;SDS011;33069;51.970;5.892;2023-02-12T10:44:40;47.72;;;32.45;;
47337;SDS011;33069;51.970;5.892;2023-02-12T10:47:10;43.72;;;29.35;;
47337;SDS011;33069;51.970;5.892;2023-02-12T10:49:47;42.70;;;31.58;;
47337;SDS011;33069;51.970;5.892;2023-02-12T10:55:00;46.55;;;31.08;;
47337;SDS011;33069;51.970;5.892;2023-02-12T10:57:27;43.90;;;31.27;;
47337;SDS011;33069;51.970;5.892;2023-02-12T10:59:55;43.50;;;29.52;;
47337;SDS011;33069;51.970;5.892;2023-02-12T11:02:38;40.28;;;29.35;;
47337;SDS011;33069;51.970;5.892;2023-02-12T11:05:23;39.65;;;27.45;;
47337;SDS011;33069;51.970;5.892;2023-02-12T11:07:51;35.58;;;27.33;;
47337;SDS011;33069;51.970;5.892;2023-02-12T11:10:20;37.10;;;28.77;;
47337;SDS011;33069;51.970;5.892;2023-02-12T11:12:51;39.28;;;26.48;;
47337;SDS011;33069;51.970;5.892;2023-02-12T11:15:21;41.00;;;26.27;;
47337;SDS011;33069;51.970;5.892;2023-02-12T11:17:59;37.58;;;27.02;;
47337;SDS011;33069;51.970;5.892;2023-02-12T11:25:59;34.08;;;27.83;;
47337;SDS011;33069;51.970;5.892;2023-02-12T11:28:28;39.15;;;29.50;;
47337;SDS011;33069;51.970;5.892;2023-02-12T11:30:56;41.55;;;29.20;;
47337;SDS011;33069;51.970;5.892;2023-02-12T11:36:00;37.60;;;26.63;;
47337;SDS011;33069;51.970;5.892;2023-02-12T11:38:38;45.20;;;30.50;;
47337;SDS011;33069;51.970;5.892;2023-02-12T11:41:32;38.80;;;28.02;;
47337;SDS011;33069;51.970;5.892;2023-02-12T11:44:09;35.63;;;27.98;;
47337;SDS011;33069;51.970;5.892;2023-02-12T11:46:45;41.65;;;30.25;;
47337;SDS011;33069;51.970;5.892;2023-02-12T11:49:22;42.83;;;32.28;;
47337;SDS011;33069;51.970;5.892;2023-02-12T11:51:51;42.42;;;29.33;;
47337;SDS011;33069;51.970;5.892;2023-02-12T11:54:19;38.47;;;27.38;;
47337;SDS011;33069;51.970;5.892;2023-02-12T11:56:48;39.13;;;26.45;;
47337;SDS011;33069;51.970;5.892;2023-02-12T11:59:20;43.83;;;28.40;;
47337;SDS011;33069;51.970;5.892;2023-02-12T12:01:55;42.08;;;28.60;;
47337;SDS011;33069;51.970;5.892;2023-02-12T12:04:26;38.30;;;27.80;;
47337;SDS011;33069;51.970;5.892;2023-02-12T12:07:00;37.05;;;26.23;;
47337;SDS011;33069;51.970;5.892;2023-02-12T12:09:58;39.58;;;26.60;;
47337;SDS011;33069;51.970;5.892;2023-02-12T12:12:29;36.10;;;26.48;;
47337;SDS011;33069;51.970;5.892;2023-02-12T12:21:27;36.63;;;27.00;;
47337;SDS011;33069;51.970;5.892;2023-02-12T12:26:34;35.97;;;25.88;;
47337;SDS011;33069;51.970;5.892;2023-02-12T12:29:11;33.63;;;24.70;;
47337;SDS011;33069;51.970;5.892;2023-02-12T12:31:49;36.80;;;25.10;;
47337;SDS011;33069;51.970;5.892;2023-02-12T12:34:23;34.00;;;25.23;;
47337;SDS011;33069;51.970;5.892;2023-02-12T12:37:04;37.53;;;25.73;;
47337;SDS011;33069;51.970;5.892;2023-02-12T12:39:46;38.15;;;25.90;;
47337;SDS011;33069;51.970;5.892;2023-02-12T12:53:17;38.60;;;27.65;;
47337;SDS011;33069;51.970;5.892;2023-02-12T13:01:30;32.40;;;26.98;;
47337;SDS011;33069;51.970;5.892;2023-02-12T13:09:13;37.03;;;28.70;;
47337;SDS011;33069;51.970;5.892;2023-02-12T13:27:40;30.80;;;24.75;;
47337;SDS011;33069;51.970;5.892;2023-02-12T13:32:45;26.48;;;22.13;;
47337;SDS011;33069;51.970;5.892;2023-02-12T13:37:55;31.73;;;21.13;;
47337;SDS011;33069;51.970;5.892;2023-02-12T13:40:22;32.28;;;22.70;;
47337;SDS011;33069;51.970;5.892;2023-02-12T13:42:52;28.52;;;21.35;;
47337;SDS011;33069;51.970;5.892;2023-02-12T13:45:24;35.28;;;26.10;;
47337;SDS011;33069;51.970;5.892;2023-02-12T13:58:52;35.15;;;25.10;;
47337;SDS011;33069;51.970;5.892;2023-02-12T14:01:36;34.78;;;26.65;;
47337;SDS011;33069;51.970;5.892;2023-02-12T14:06:52;33.88;;;25.70;;
47337;SDS011;33069;51.970;5.892;2023-02-12T14:09:30;34.45;;;26.50;;
47337;SDS011;33069;51.970;5.892;2023-02-12T14:11:59;29.55;;;24.45;;
47337;SDS011;33069;51.970;5.892;2023-02-12T14:14:31;34.53;;;25.15;;
47337;SDS011;33069;51.970;5.892;2023-02-12T14:19:56;31.60;;;25.70;;
47337;SDS011;33069;51.970;5.892;2023-02-12T14:54:17;34.38;;;26.02;;
47337;SDS011;33069;51.970;5.892;2023-02-12T14:56:51;34.42;;;25.45;;
47337;SDS011;33069;51.970;5.892;2023-02-12T14:59:20;32.28;;;26.45;;
47337;SDS011;33069;51.970;5.892;2023-02-12T15:01:49;30.65;;;23.27;;
47337;SDS011;33069;51.970;5.892;2023-02-12T15:04:23;36.38;;;27.38;;
47337;SDS011;33069;51.970;5.892;2023-02-12T15:06:53;32.72;;;25.98;;
47337;SDS011;33069;51.970;5.892;2023-02-12T15:14:49;35.00;;;25.20;;
47337;SDS011;33069;51.970;5.892;2023-02-12T15:17:21;33.83;;;27.48;;
47337;SDS011;33069;51.970;5.892;2023-02-12T15:20:00;36.10;;;26.08;;
47337;SDS011;33069;51.970;5.892;2023-02-12T15:22:40;33.50;;;25.33;;
47337;SDS011;33069;51.970;5.892;2023-02-12T15:28:03;30.45;;;21.60;;
47337;SDS011;33069;51.970;5.892;2023-02-12T15:30:47;30.63;;;23.95;;
47337;SDS011;33069;51.970;5.892;2023-02-12T15:33:25;33.85;;;25.67;;
47337;SDS011;33069;51.970;5.892;2023-02-12T15:35:53;43.15;;;26.05;;
47337;SDS011;33069;51.970;5.892;2023-02-12T15:38:21;32.28;;;24.20;;
47337;SDS011;33069;51.970;5.892;2023-02-12T15:40:54;33.50;;;25.55;;
47337;SDS011;33069;51.970;5.892;2023-02-12T15:43:24;32.85;;;25.33;;
47337;SDS011;33069;51.970;5.892;2023-02-12T15:45:51;36.92;;;25.95;;
47337;SDS011;33069;51.970;5.892;2023-02-12T15:48:18;35.30;;;24.92;;
47337;SDS011;33069;51.970;5.892;2023-02-12T15:51:32;34.65;;;24.38;;
47337;SDS011;33069;51.970;5.892;2023-02-12T15:53:38;32.25;;;23.83;;
47337;SDS011;33069;51.970;5.892;2023-02-12T15:56:04;36.28;;;25.52;;
47337;SDS011;33069;51.970;5.892;2023-02-12T15:58:41;35.50;;;24.07;;
47337;SDS011;33069;51.970;5.892;2023-02-12T16:01:30;34.00;;;24.73;;
47337;SDS011;33069;51.970;5.892;2023-02-12T16:04:01;33.30;;;23.20;;
47337;SDS011;33069;51.970;5.892;2023-02-12T16:06:33;37.50;;;25.95;;
47337;SDS011;33069;51.970;5.892;2023-02-12T16:09:01;32.35;;;23.60;;
47337;SDS011;33069;51.970;5.892;2023-02-12T16:11:33;33.88;;;24.52;;
47337;SDS011;33069;51.970;5.892;2023-02-12T16:14:04;32.38;;;24.90;;
47337;SDS011;33069;51.970;5.892;2023-02-12T16:16:45;30.98;;;23.60;;
47337;SDS011;33069;51.970;5.892;2023-02-12T16:19:20;36.03;;;25.23;;
47337;SDS011;33069;51.970;5.892;2023-02-12T16:24:44;42.33;;;24.73;;
47337;SDS011;33069;51.970;5.892;2023-02-12T16:27:17;34.63;;;24.60;;
47337;SDS011;33069;51.970;5.892;2023-02-12T16:29:50;33.90;;;23.48;;
47337;SDS011;33069;51.970;5.892;2023-02-12T16:42:36;34.38;;;22.88;;
47337;SDS011;33069;51.970;5.892;2023-02-12T16:47:52;38.42;;;23.60;;
47337;SDS011;33069;51.970;5.892;2023-02-12T16:50:21;33.78;;;23.08;;
47337;SDS011;33069;51.970;5.892;2023-02-12T16:52:50;35.97;;;23.58;;
47337;SDS011;33069;51.970;5.892;2023-02-12T16:55:28;35.47;;;22.33;;
47337;SDS011;33069;51.970;5.892;2023-02-12T16:57:53;36.92;;;24.40;;
47337;SDS011;33069;51.970;5.892;2023-02-12T17:00:19;33.50;;;23.60;;
47337;SDS011;33069;51.970;5.892;2023-02-12T17:02:45;38.97;;;23.05;;
47337;SDS011;33069;51.970;5.892;2023-02-12T17:05:12;35.63;;;24.83;;
47337;SDS011;33069;51.970;5.892;2023-02-12T17:07:41;35.15;;;24.63;;
47337;SDS011;33069;51.970;5.892;2023-02-12T17:10:11;39.67;;;23.65;;
47337;SDS011;33069;51.970;5.892;2023-02-12T17:12:44;33.85;;;23.88;;
47337;SDS011;33069;51.970;5.892;2023-02-12T17:15:13;38.67;;;24.33;;
47337;SDS011;33069;51.970;5.892;2023-02-12T17:17:54;36.22;;;24.15;;
47337;SDS011;33069;51.970;5.892;2023-02-12T17:20:20;33.15;;;22.90;;
47337;SDS011;33069;51.970;5.892;2023-02-12T17:22:50;36.38;;;23.92;;
47337;SDS011;33069;51.970;5.892;2023-02-12T17:25:18;33.17;;;23.67;;
47337;SDS011;33069;51.970;5.892;2023-02-12T17:27:44;35.67;;;24.25;;
47337;SDS011;33069;51.970;5.892;2023-02-12T17:30:14;35.67;;;23.02;;
47337;SDS011;33069;51.970;5.892;2023-02-12T17:32:42;32.33;;;21.27;;
47337;SDS011;33069;51.970;5.892;2023-02-12T17:35:08;37.40;;;22.92;;
47337;SDS011;33069;51.970;5.892;2023-02-12T17:37:34;33.95;;;22.80;;
47337;SDS011;33069;51.970;5.892;2023-02-12T17:39:59;36.17;;;24.02;;
47337;SDS011;33069;51.970;5.892;2023-02-12T17:42:25;41.72;;;25.98;;
47337;SDS011;33069;51.970;5.892;2023-02-12T17:44:51;34.55;;;23.83;;
47337;SDS011;33069;51.970;5.892;2023-02-12T17:47:17;40.65;;;25.63;;
47337;SDS011;33069;51.970;5.892;2023-02-12T17:49:43;38.42;;;24.75;;
47337;SDS011;33069;51.970;5.892;2023-02-12T17:52:08;39.65;;;26.27;;
47337;SDS011;33069;51.970;5.892;2023-02-12T17:54:34;44.85;;;26.50;;
47337;SDS011;33069;51.970;5.892;2023-02-12T17:57:00;46.53;;;26.63;;
47337;SDS011;33069;51.970;5.892;2023-02-12T17:59:26;37.95;;;24.58;;
47337;SDS011;33069;51.970;5.892;2023-02-12T18:01:53;41.70;;;25.77;;
47337;SDS011;33069;51.970;5.892;2023-02-12T18:04:19;43.85;;;26.42;;